Time;durP1;ratioP1;P1;durP2;ratioP2;P2;SDS_P1;SDS_P2;PMS_P1;PMS_P2;Temp;Humidity;BMP_temperature;BMP_pressure;BME280_temperature;BME280_humidity;BME280_pressure;Samples;Min_cycle;Max_cycle;Signal;HPM_P1;HPM_P2
2022/10/26 00:01:10;;;;;;;5.60;3.15;;;;;;;11.24;100.00;99230.71;1645713;86;21090;-77
2022/10/26 00:03:38;;;;;;;5.70;4.00;;;;;;;11.24;100.00;99229.89;1668085;86;21122;-77
2022/10/26 00:06:14;;;;;;;7.65;4.03;;;;;;;11.23;100.00;99221.47;1667661;86;21085;-78
2022/10/26 00:08:43;;;;;;;5.30;3.10;;;;;;;11.22;100.00;99219.25;1672903;85;21022;-76
2022/10/26 00:11:10;;;;;;;7.58;3.33;;;;;;;11.21;100.00;99207.60;1690384;85;21090;-73
2022/10/26 00:13:39;;;;;;;7.67;3.72;;;;;;;11.23;100.00;99211.99;1690858;85;21091;-80
2022/10/26 00:16:14;;;;;;;7.62;4.05;;;;;;;11.23;100.00;99199.29;1690466;85;21050;-79
2022/10/26 00:18:40;;;;;;;5.37;3.45;;;;;;;11.22;100.00;99184.08;1690390;85;21117;-78
2022/10/26 00:21:08;;;;;;;9.70;4.20;;;;;;;11.22;100.00;99182.72;1690777;85;21113;-80
2022/10/26 00:23:37;;;;;;;12.78;4.67;;;;;;;11.22;100.00;99184.08;1690226;85;21063;-75
2022/10/26 00:26:04;;;;;;;8.53;4.25;;;;;;;11.23;100.00;99190.34;1716789;82;21042;-79
2022/10/26 00:28:31;;;;;;;7.62;4.15;;;;;;;11.22;100.00;99174.61;1736318;83;21505;-79
2022/10/26 00:31:07;;;;;;;8.00;4.17;;;;;;;11.21;100.00;99175.66;1736249;83;21556;-78
2022/10/26 00:33:34;;;;;;;9.20;4.25;;;;;;;11.21;100.00;99178.36;1736563;83;21019;-78
2022/10/26 00:36:02;;;;;;;7.25;4.22;;;;;;;11.20;100.00;99199.67;1736223;82;21043;-77
2022/10/26 00:38:29;;;;;;;7.95;3.55;;;;;;;11.18;100.00;99232.34;1736600;83;21072;-80
2022/10/26 00:40:56;;;;;;;8.55;4.53;;;;;;;11.17;100.00;99240.15;1736405;83;21074;-81
2022/10/26 00:43:33;;;;;;;7.08;4.20;;;;;;;11.15;100.00;99240.84;1736277;83;21109;-80
2022/10/26 00:46:00;;;;;;;7.45;4.17;;;;;;;11.14;100.00;99239.18;1736535;83;21065;-78
2022/10/26 00:48:37;;;;;;;6.70;4.10;;;;;;;11.15;100.00;99263.00;1736453;83;21033;-78
2022/10/26 00:51:09;;;;;;;6.55;3.62;;;;;;;11.15;100.00;99276.53;1692560;83;21110;-79
2022/10/26 00:53:35;;;;;;;7.95;3.65;;;;;;;11.14;100.00;99289.76;1676168;86;21062;-76
2022/10/26 00:56:02;;;;;;;7.03;3.60;;;;;;;11.14;100.00;99327.64;1675403;86;21023;-73
2022/10/26 00:58:30;;;;;;;5.72;3.52;;;;;;;11.12;100.00;99413.55;1675627;86;21035;-77
2022/10/26 01:00:58;;;;;;;6.85;3.67;;;;;;;11.12;100.00;99468.52;1675544;86;21066;-76
2022/10/26 01:03:25;;;;;;;9.25;3.98;;;;;;;11.12;100.00;99498.78;1675534;86;21027;-76
2022/10/26 01:05:51;;;;;;;6.90;3.80;;;;;;;11.10;100.00;99590.13;1675691;86;21095;-73
2022/10/26 01:08:18;;;;;;;7.12;3.50;;;;;;;11.09;100.00;99623.64;1677174;84;21051;-77
2022/10/26 01:10:45;;;;;;;6.53;3.50;;;;;;;11.08;100.00;99640.88;1700888;84;21081;-77
2022/10/26 01:13:13;;;;;;;5.17;3.20;;;;;;;11.07;100.00;99704.16;1703957;84;21574;-76
2022/10/26 01:15:47;;;;;;;6.78;3.30;;;;;;;11.05;100.00;99702.12;1704462;84;21046;-77
2022/10/26 01:18:42;;;;;;;5.40;3.10;;;;;;;11.03;100.00;99710.45;1704393;84;21061;-78
2022/10/26 01:21:20;;;;;;;4.03;3.15;;;;;;;11.00;100.00;99715.69;1704597;84;21097;-79
2022/10/26 01:24:13;;;;;;;5.87;2.95;;;;;;;10.95;100.00;99733.49;1701020;84;21082;-80
2022/10/26 01:26:54;;;;;;;5.22;3.45;;;;;;;10.92;100.00;99756.84;1704090;84;21069;-75
2022/10/26 01:29:55;;;;;;;3.20;2.62;;;;;;;10.87;100.00;99754.70;1704257;83;21086;-77
2022/10/26 01:32:33;;;;;;;4.22;2.92;;;;;;;10.83;100.00;99762.81;1704172;84;21058;-77
2022/10/26 01:35:09;;;;;;;3.17;2.87;;;;;;;10.80;100.00;99764.52;1668777;86;21068;-78
2022/10/26 01:37:40;;;;;;;6.70;3.20;;;;;;;10.76;100.00;99756.44;1668582;86;21119;-80
2022/10/26 01:40:25;;;;;;;5.47;3.17;;;;;;;10.75;100.00;99762.38;1647042;86;21067;-78
2022/10/26 01:42:53;;;;;;;7.58;2.95;;;;;;;10.72;100.00;99753.78;1662940;86;21030;-78
2022/10/26 01:45:20;;;;;;;8.70;3.37;;;;;;;10.70;100.00;99753.12;1636661;88;21556;-74
2022/10/26 01:47:46;;;;;;;5.55;2.72;;;;;;;10.68;100.00;99753.78;1639324;87;21093;-78
2022/10/26 01:50:14;;;;;;;3.30;2.77;;;;;;;10.67;100.00;99760.23;1664143;86;21063;-78
2022/10/26 01:52:41;;;;;;;3.70;2.80;;;;;;;10.66;100.00;99766.64;1647049;87;21076;-77
2022/10/26 01:55:47;;;;;;;5.87;3.02;;;;;;;10.66;100.00;99767.50;1676279;86;21021;-79
2022/10/26 01:58:49;;;;;;;7.40;3.45;;;;;;;10.67;100.00;99761.58;1675791;86;21077;-78
2022/10/26 02:01:33;;;;;;;6.53;3.47;;;;;;;10.67;100.00;99754.30;1622979;86;21580;-76
2022/10/26 02:04:11;;;;;;;5.15;3.00;;;;;;;10.68;100.00;99760.54;1620084;88;21098;-75
2022/10/26 02:07:05;;;;;;;5.03;3.05;;;;;;;10.68;100.00;99777.63;1623182;88;21182;-77
2022/10/26 02:10:11;;;;;;;5.65;3.00;;;;;;;10.69;100.00;99767.13;1616407;88;21058;-77
2022/10/26 02:13:09;;;;;;;5.12;3.35;;;;;;;10.72;100.00;99774.89;1622038;88;21142;-80
2022/10/26 02:15:50;;;;;;;6.47;3.47;;;;;;;10.71;100.00;99789.45;1611138;89;21598;-75
2022/10/26 02:18:28;;;;;;;9.10;3.85;;;;;;;10.71;100.00;99793.50;1611067;89;21167;-78
2022/10/26 02:21:05;;;;;;;7.78;3.37;;;;;;;10.72;100.00;99771.35;1571303;91;21133;-78
2022/10/26 02:23:35;;;;;;;4.53;3.27;;;;;;;10.73;100.00;99778.42;1610794;89;21124;-74
2022/10/26 02:26:02;;;;;;;6.60;3.67;;;;;;;10.73;100.00;99795.52;1569154;91;21127;-76
2022/10/26 02:28:33;;;;;;;4.50;3.20;;;;;;;10.73;100.00;99775.72;1610633;89;21100;-75
2022/10/26 02:31:00;;;;;;;6.80;3.60;;;;;;;10.74;100.00;99782.31;1608960;89;21765;-75
2022/10/26 02:33:30;;;;;;;5.30;3.37;;;;;;;10.76;100.00;99786.19;1606354;89;21094;-77
2022/10/26 02:35:57;;;;;;;6.67;3.62;;;;;;;10.77;100.00;99786.02;1584280;89;21097;-76
2022/10/26 02:38:24;;;;;;;5.70;3.65;;;;;;;10.79;100.00;99785.84;1629704;87;21060;-73
2022/10/26 02:40:50;;;;;;;7.25;3.98;;;;;;;10.81;100.00;99792.74;1641464;87;21089;-76
2022/10/26 02:45:50;;;;;;;6.30;3.75;;;;;;;10.86;100.00;99790.03;1576289;91;21067;-74
2022/10/26 02:48:17;;;;;;;8.88;4.05;;;;;;;10.87;100.00;99802.03;1518912;94;21144;-76
2022/10/26 02:51:02;;;;;;;10.90;4.65;;;;;;;10.89;100.00;99799.12;1518787;94;21097;-75
2022/10/26 02:53:46;;;;;;;13.43;4.90;;;;;;;10.91;100.00;99797.94;1518790;94;21411;-77
2022/10/26 02:56:20;;;;;;;12.00;4.67;;;;;;;10.92;100.00;99804.18;1537444;93;21133;-76
2022/10/26 02:58:51;;;;;;;7.35;4.22;;;;;;;10.92;100.00;99797.41;1520439;94;21122;-74
2022/10/26 03:01:18;;;;;;;7.20;4.25;;;;;;;10.94;100.00;99802.13;1495875;96;21678;-73
2022/10/26 03:03:45;;;;;;;10.48;3.52;;;;;;;10.95;100.00;99797.90;1502383;94;21156;-74
2022/10/26 03:06:22;;;;;;;6.17;3.98;;;;;;;10.96;100.00;99798.24;1496001;96;21175;-73
2022/10/26 03:08:49;;;;;;;6.95;3.92;;;;;;;10.97;100.00;99803.13;1525345;93;21127;-75
2022/10/26 03:11:16;;;;;;;5.03;3.52;;;;;;;10.98;100.00;99803.48;1544353;93;21171;-74
2022/10/26 03:13:43;;;;;;;4.92;3.60;;;;;;;10.99;100.00;99801.92;1544219;93;21129;-75
2022/10/26 03:16:10;;;;;;;5.42;3.22;;;;;;;11.01;100.00;99812.56;1543894;93;21146;-75
2022/10/26 03:18:37;;;;;;;7.08;3.52;;;;;;;11.01;100.00;99813.92;1544399;93;21088;-75
2022/10/26 03:21:05;;;;;;;7.95;4.10;;;;;;;11.02;100.00;99812.91;1544115;93;21105;-73
2022/10/26 03:23:32;;;;;;;7.50;4.45;;;;;;;11.02;100.00;99812.91;1544369;93;21619;-74
2022/10/26 03:25:59;;;;;;;8.48;4.25;;;;;;;11.02;100.00;99819.67;1543163;93;21129;-77
2022/10/26 03:28:26;;;;;;;7.15;3.87;;;;;;;11.02;100.00;99819.16;1542867;93;21115;-75
2022/10/26 03:30:53;;;;;;;3.98;3.12;;;;;;;11.04;100.00;99816.27;1543236;93;21093;-76
2022/10/26 03:33:20;;;;;;;5.95;3.67;;;;;;;11.04;100.00;99815.44;1543239;93;21113;-76
2022/10/26 03:35:49;;;;;;;4.95;3.35;;;;;;;11.05;100.00;99809.85;1548944;91;21125;-76
2022/10/26 03:38:15;;;;;;;7.28;3.67;;;;;;;11.06;100.00;99807.46;1543314;93;21120;-76
2022/10/26 03:40:42;;;;;;;6.05;3.67;;;;;;;11.07;100.00;99810.51;1549030;93;21093;-74
2022/10/26 03:43:09;;;;;;;7.62;3.70;;;;;;;11.07;100.00;99809.16;1564301;91;21165;-82
2022/10/26 03:45:36;;;;;;;4.55;3.33;;;;;;;11.08;100.00;99807.28;1634247;87;21047;-77
2022/10/26 03:48:04;;;;;;;6.47;3.30;;;;;;;11.08;100.00;99816.23;1657521;85;21099;-78
2022/10/26 03:50:30;;;;;;;6.03;3.75;;;;;;;11.09;100.00;99813.88;1657796;87;21099;-74
2022/10/26 03:52:57;;;;;;;5.08;3.62;;;;;;;11.09;100.00;99816.58;1657693;87;21004;-75
2022/10/26 03:55:24;;;;;;;4.33;3.35;;;;;;;11.11;100.00;99818.59;1714169;81;21060;-74
2022/10/26 03:57:50;;;;;;;6.17;3.72;;;;;;;11.10;100.00;99817.41;1770046;81;21021;-77
2022/10/26 04:00:17;;;;;;;7.95;3.92;;;;;;;11.11;100.00;99815.88;1769933;81;21009;-76
2022/10/26 04:02:47;;;;;;;7.33;4.20;;;;;;;11.12;100.00;99813.52;1769944;81;21134;-77
2022/10/26 04:05:15;;;;;;;6.42;4.08;;;;;;;11.13;100.00;99814.36;1765914;81;21503;-78
2022/10/26 04:07:42;;;;;;;6.10;3.47;;;;;;;11.13;100.00;99819.25;1769579;81;21020;-73
2022/10/26 04:10:10;;;;;;;6.28;3.67;;;;;;;11.14;100.00;99829.06;1763616;81;21477;-75
2022/10/26 04:12:37;;;;;;;4.78;3.30;;;;;;;11.15;100.00;99828.02;1762858;81;21044;-75
2022/10/26 04:15:09;;;;;;;7.67;3.77;;;;;;;11.15;100.00;99832.08;1762687;81;21039;-73
2022/10/26 04:17:35;;;;;;;5.20;3.37;;;;;;;11.17;100.00;99831.91;1762807;81;21020;-74
2022/10/26 04:20:04;;;;;;;4.45;3.20;;;;;;;11.18;100.00;99827.67;1762876;81;21545;-76
2022/10/26 04:22:31;;;;;;;5.22;3.42;;;;;;;11.21;100.00;99829.19;1762582;81;21059;-75
2022/10/26 04:24:59;;;;;;;3.60;2.70;;;;;;;11.22;100.00;99833.56;1757952;81;21148;-76
2022/10/26 04:27:26;;;;;;;4.30;2.50;;;;;;;11.22;100.00;99834.91;1734462;83;21047;-76
2022/10/26 04:29:53;;;;;;;7.87;2.83;;;;;;;11.24;100.00;99843.69;1734521;83;21018;-76
2022/10/26 04:32:19;;;;;;;4.10;2.70;;;;;;;11.25;100.00;99845.39;1734411;83;21002;-75
2022/10/26 04:34:46;;;;;;;4.47;2.45;;;;;;;11.27;100.00;99851.45;1734045;83;21524;-75
2022/10/26 04:37:12;;;;;;;4.67;2.67;;;;;;;11.31;100.00;99856.00;1734823;83;21022;-77
2022/10/26 04:39:40;;;;;;;6.03;3.10;;;;;;;11.33;100.00;99845.83;1707888;83;21076;-77
2022/10/26 04:42:07;;;;;;;3.00;2.55;;;;;;;11.34;100.00;99848.87;1734501;83;21002;-79
2022/10/26 04:44:34;;;;;;;6.12;3.70;;;;;;;11.37;100.00;99852.06;1735650;83;21479;-77
2022/10/26 04:47:01;;;;;;;2.95;2.65;;;;;;;11.38;100.00;99847.00;1736187;81;21578;-78
2022/10/26 04:49:28;;;;;;;4.08;2.85;;;;;;;11.40;100.00;99852.20;1735682;83;21554;-75
2022/10/26 04:51:55;;;;;;;2.70;2.35;;;;;;;11.42;100.00;99853.38;1735201;82;21057;-74
2022/10/26 04:54:22;;;;;;;3.40;2.37;;;;;;;11.42;100.00;99843.41;1735168;83;21052;-71
2022/10/26 04:56:50;;;;;;;2.47;2.27;;;;;;;11.44;100.00;99849.48;1735058;83;21134;-73
2022/10/26 04:59:17;;;;;;;5.03;2.45;;;;;;;11.47;100.00;99841.50;1735378;83;21013;-74
2022/10/26 05:01:43;;;;;;;3.15;2.80;;;;;;;11.48;100.00;99848.61;1735987;83;21028;-76
2022/10/26 05:04:10;;;;;;;5.03;2.22;;;;;;;11.48;100.00;99845.38;1735760;83;21072;-75
2022/10/26 05:06:38;;;;;;;6.60;2.50;;;;;;;11.50;100.00;99851.45;1735683;83;21014;-72
2022/10/26 05:09:05;;;;;;;3.75;2.30;;;;;;;11.52;100.00;99860.75;1734275;83;21002;-73
2022/10/26 05:11:33;;;;;;;6.05;2.60;;;;;;;11.52;100.00;99861.58;1733684;83;21035;-72
2022/10/26 05:14:00;;;;;;;3.87;2.72;;;;;;;11.54;100.00;99866.33;1733838;83;21009;-73
2022/10/26 05:16:27;;;;;;;2.58;2.30;;;;;;;11.56;100.00;99872.41;1733917;83;21037;-73
2022/10/26 05:18:55;;;;;;;3.60;2.67;;;;;;;11.57;100.00;99886.25;1733629;83;21062;-73
2022/10/26 05:21:22;;;;;;;4.05;2.40;;;;;;;11.58;100.00;99883.89;1733599;83;21042;-74
2022/10/26 05:23:52;;;;;;;5.62;2.35;;;;;;;11.60;100.00;99883.72;1733813;83;21041;-72
2022/10/26 05:26:23;;;;;;;2.90;2.15;;;;;;;11.62;100.00;99888.43;1733105;80;21069;-72
2022/10/26 05:28:50;;;;;;;3.92;2.30;;;;;;;11.65;100.00;99889.92;1730854;83;21536;-72
2022/10/26 05:31:17;;;;;;;3.52;2.15;;;;;;;11.66;100.00;99888.91;1736787;83;21135;-72
2022/10/26 05:33:46;;;;;;;2.87;2.10;;;;;;;11.67;100.00;99887.87;1737527;82;21039;-72
2022/10/26 05:36:13;;;;;;;2.83;2.27;;;;;;;11.69;100.00;99893.45;1740554;81;21081;-72
2022/10/26 05:38:40;;;;;;;2.47;1.80;;;;;;;11.70;100.00;99889.70;1736746;81;21081;-71
2022/10/26 05:41:07;;;;;;;1.87;1.62;;;;;;;11.72;100.00;99893.09;1736392;83;20985;-73
2022/10/26 05:43:33;;;;;;;2.77;2.20;;;;;;;11.74;100.00;99901.04;1738078;81;21590;-72
2022/10/26 05:46:00;;;;;;;2.80;2.05;;;;;;;11.75;100.00;99904.06;1735141;83;21028;-72
2022/10/26 05:48:27;;;;;;;2.12;1.92;;;;;;;11.77;100.00;99900.66;1730285;83;21045;-71
2022/10/26 05:50:53;;;;;;;2.10;1.90;;;;;;;11.78;100.00;99901.00;1733273;83;20958;-72
2022/10/26 05:53:20;;;;;;;2.02;1.70;;;;;;;11.81;100.00;99900.64;1734613;83;21423;-75
2022/10/26 05:55:47;;;;;;;2.17;1.67;;;;;;;11.83;100.00;99907.20;1734477;83;21025;-75
2022/10/26 05:58:17;;;;;;;1.87;1.72;;;;;;;11.86;100.00;99905.49;1734728;83;21069;-77
2022/10/26 06:00:55;;;;;;;2.15;1.82;;;;;;;11.89;100.00;99900.55;1735166;83;20978;-78
2022/10/26 06:03:44;;;;;;;2.45;2.25;;;;;;;11.91;100.00;99908.01;1727667;83;21030;-75
2022/10/26 06:06:13;;;;;;;10.35;7.15;;;;;;;11.95;100.00;99913.91;1736759;82;21494;-75
2022/10/26 06:08:41;;;;;;;12.13;5.65;;;;;;;11.98;100.00;99912.19;1735879;81;21030;-75
2022/10/26 06:11:10;;;;;;;5.15;3.80;;;;;;;12.01;100.00;99904.22;1734833;83;21526;-77
2022/10/26 06:13:38;;;;;;;3.72;3.05;;;;;;;12.04;100.00;99909.25;1734136;83;21475;-74
2022/10/26 06:16:17;;;;;;;2.40;2.20;;;;;;;12.05;100.00;99913.66;1732704;83;21460;-73
2022/10/26 06:19:10;;;;;;;3.12;2.33;;;;;;;12.07;100.00;99918.38;1734026;83;20950;-78
2022/10/26 06:22:29;;;;;;;3.62;2.35;;;;;;;12.09;100.00;99912.26;1697336;83;21026;-78
2022/10/26 06:25:31;;;;;;;3.00;2.70;;;;;;;12.11;100.00;99915.62;1692190;83;21064;-77
2022/10/26 06:28:24;;;;;;;3.65;3.22;;;;;;;12.12;100.00;99918.67;1742635;81;21508;-74
2022/10/26 06:30:51;;;;;;;2.55;2.35;;;;;;;12.14;100.00;99922.87;1709444;83;21043;-77
2022/10/26 06:33:17;;;;;;;3.00;2.80;;;;;;;12.17;100.00;99925.73;1683666;85;21584;-77
2022/10/26 06:36:08;;;;;;;4.08;2.75;;;;;;;12.18;100.00;99924.70;1716784;83;22170;-76
2022/10/26 06:38:34;;;;;;;2.90;2.47;;;;;;;12.22;100.00;99925.20;1706963;83;21040;-79
2022/10/26 06:41:02;;;;;;;3.62;2.70;;;;;;;12.25;100.00;99928.38;1698576;84;21088;-75
2022/10/26 06:43:31;;;;;;;2.58;2.37;;;;;;;12.29;100.00;99930.20;1698079;84;21091;-78
2022/10/26 06:46:28;;;;;;;4.55;2.45;;;;;;;12.31;100.00;99932.22;1698340;84;21118;-78
2022/10/26 06:49:35;;;;;;;4.95;2.90;;;;;;;12.34;100.00;99933.18;1697577;83;21616;-76
2022/10/26 06:52:08;;;;;;;8.33;3.72;;;;;;;12.38;100.00;99939.07;1698060;84;21000;-78
2022/10/26 06:54:53;;;;;;;;;;;;;;;12.40;100.00;99936.52;1640888;87;21555;-81
2022/10/26 06:57:22;;;;;;;5.12;3.27;;;;;;;12.42;100.00;99943.95;1577690;89;20189;-74
2022/10/26 06:59:56;;;;;;;7.40;3.22;;;;;;;12.45;100.00;99948.18;1597163;90;21118;-76
2022/10/26 07:02:23;;;;;;;5.33;3.77;;;;;;;12.47;100.00;99948.30;1598644;90;21057;-75
2022/10/26 07:04:50;;;;;;;6.00;3.45;;;;;;;12.50;100.00;99943.02;1632889;87;21019;-77
2022/10/26 07:07:24;;;;;;;5.42;3.70;;;;;;;12.53;100.00;99946.72;1636818;87;21041;-75
2022/10/26 07:09:51;;;;;;;6.22;3.60;;;;;;;12.55;100.00;99937.88;1635578;87;21549;-73
2022/10/26 07:12:18;;;;;;;7.15;3.80;;;;;;;12.59;100.00;99941.05;1641176;87;21067;-74
2022/10/26 07:14:46;;;;;;;9.43;4.20;;;;;;;12.63;100.00;99949.17;1641729;87;21132;-74
2022/10/26 07:17:13;;;;;;;7.17;4.10;;;;;;;12.66;100.00;99940.63;1642190;87;21108;-75
2022/10/26 07:19:41;;;;;;;7.15;4.62;;;;;;;12.65;100.00;99946.58;1642484;87;21093;-74
2022/10/26 07:22:09;;;;;;;9.75;5.45;;;;;;;12.67;100.00;99941.81;1641950;87;21116;-74
2022/10/26 07:24:36;;;;;;;10.45;5.10;;;;;;;12.70;100.00;99946.87;1641447;87;21082;-74
2022/10/26 07:27:03;;;;;;;11.22;5.62;;;;;;;12.73;100.00;99942.43;1633401;87;21119;-74
2022/10/26 07:29:32;;;;;;;15.13;5.80;;;;;;;12.75;100.00;99940.89;1613345;89;21002;-75
2022/10/26 07:31:59;;;;;;;12.88;6.12;;;;;;;12.78;100.00;99937.78;1631422;87;21009;-73
2022/10/26 07:34:26;;;;;;;13.75;6.10;;;;;;;12.80;100.00;99935.75;1651264;87;21103;-73
2022/10/26 07:36:52;;;;;;;13.85;6.62;;;;;;;12.82;100.00;99940.47;1622874;88;21089;-74
2022/10/26 07:39:19;;;;;;;15.38;8.10;;;;;;;12.84;100.00;99937.05;1650977;85;21024;-75
2022/10/26 07:41:46;;;;;;;20.35;9.25;;;;;;;12.86;100.00;99930.08;1664930;85;21018;-77
2022/10/26 07:44:12;;;;;;;21.23;10.03;;;;;;;12.88;100.00;99930.20;1666865;85;21019;-76
2022/10/26 07:46:40;;;;;;;18.67;9.98;;;;;;;12.90;100.00;99931.38;1664974;84;21019;-76
2022/10/26 07:49:08;;;;;;;18.87;9.50;;;;;;;12.92;100.00;99937.45;1590715;87;21054;-79
2022/10/26 07:51:36;;;;;;;22.85;10.68;;;;;;;12.94;100.00;99935.38;1668688;85;21494;-77
2022/10/26 07:54:05;;;;;;;22.50;9.65;;;;;;;12.98;100.00;99929.92;1697342;84;21007;-77
2022/10/26 07:56:32;;;;;;;19.57;9.65;;;;;;;13.01;100.00;99935.47;1695625;84;21006;-74
2022/10/26 07:58:59;;;;;;;20.20;10.18;;;;;;;13.02;100.00;99935.28;1680800;85;21033;-77
2022/10/26 08:01:26;;;;;;;20.43;9.95;;;;;;;13.05;100.00;99942.19;1682511;83;21006;-78
2022/10/26 08:03:53;;;;;;;23.22;11.88;;;;;;;13.05;100.00;99942.19;1679405;85;21064;-74
2022/10/26 08:06:23;;;;;;;24.65;12.45;;;;;;;13.06;100.00;99942.01;1674215;85;20963;-76
2022/10/26 08:08:50;;;;;;;25.80;12.25;;;;;;;13.08;100.00;99944.53;1698988;84;21033;-77
2022/10/26 08:11:17;;;;;;;27.52;11.65;;;;;;;13.07;100.00;99944.23;1709011;83;21034;-79
2022/10/26 08:13:45;;;;;;;22.70;11.53;;;;;;;13.09;100.00;99948.95;1709249;84;21082;-78
2022/10/26 08:16:12;;;;;;;23.73;12.05;;;;;;;13.07;100.00;99945.06;1709370;84;20959;-82
2022/10/26 08:18:40;;;;;;;23.00;11.53;;;;;;;13.08;100.00;99944.05;1716346;83;21052;-78
2022/10/26 08:21:10;;;;;;;25.77;12.10;;;;;;;13.05;100.00;99943.06;1706172;83;21037;-78
2022/10/26 08:23:37;;;;;;;26.17;11.80;;;;;;;13.03;100.00;99947.84;1698423;84;21022;-79
2022/10/26 08:26:05;;;;;;;25.68;11.22;;;;;;;13.02;100.00;99946.14;1696728;84;21073;-81
2022/10/26 08:28:32;;;;;;;29.32;12.20;;;;;;;13.04;100.00;99941.88;1688245;84;21085;-76
2022/10/26 08:30:59;;;;;;;28.87;13.48;;;;;;;13.06;100.00;99942.53;1688961;85;21093;-79
2022/10/26 08:33:26;;;;;;;31.80;14.18;;;;;;;13.07;100.00;99938.80;1737242;83;21479;-78
2022/10/26 08:36:01;;;;;;;26.02;12.90;;;;;;;13.08;100.00;99940.47;1737525;83;21506;-75
2022/10/26 08:38:28;;;;;;;28.77;12.63;;;;;;;13.08;100.00;99937.26;1734599;82;21025;-74
2022/10/26 08:40:56;;;;;;;28.67;13.53;;;;;;;13.09;100.00;99942.99;1737441;82;20958;-74
2022/10/26 08:43:31;;;;;;;30.65;13.50;;;;;;;13.14;100.00;99949.72;1674722;84;21061;-73
2022/10/26 08:46:08;;;;;;;25.95;12.93;;;;;;;13.15;100.00;99944.10;1702646;84;20986;-73
2022/10/26 08:48:39;;;;;;;22.67;11.10;;;;;;;13.18;100.00;99952.40;1701265;84;21074;-73
2022/10/26 08:51:21;;;;;;;23.00;11.08;;;;;;;13.20;100.00;99953.05;1681069;85;21050;-75
2022/10/26 08:53:58;;;;;;;27.93;11.97;;;;;;;13.20;100.00;99955.77;1679201;85;21070;-76
2022/10/26 08:56:40;;;;;;;28.73;12.50;;;;;;;13.22;100.00;99954.52;1678704;85;20987;-77
2022/10/26 08:59:24;;;;;;;64.47;36.25;;;;;;;13.26;100.00;99959.05;1680584;85;21065;-77
2022/10/26 09:01:50;;;;;;;30.80;15.65;;;;;;;13.28;100.00;99955.14;1727965;83;21041;-79
2022/10/26 09:04:19;;;;;;;26.37;13.83;;;;;;;13.33;100.00;99956.45;1734775;83;21104;-79
2022/10/26 09:07:06;;;;;;;26.10;12.37;;;;;;;13.35;100.00;99955.25;1730718;83;21388;-79
2022/10/26 09:10:04;;;;;;;27.42;13.25;;;;;;;13.37;100.00;99952.31;1702712;84;21062;-75
2022/10/26 09:12:48;;;;;;;22.45;12.65;;;;;;;13.39;100.00;99949.75;1702672;84;21022;-79
2022/10/26 09:15:48;;;;;;;24.02;11.65;;;;;;;13.38;100.00;99950.77;1688865;85;21074;-88
2022/10/26 09:18:29;;;;;;;27.85;13.30;;;;;;;13.36;100.00;99950.66;1688790;85;21047;-77
2022/10/26 09:21:28;;;;;;;26.52;12.33;;;;;;;13.29;100.00;99946.47;1686906;85;20991;-82
2022/10/26 09:24:15;;;;;;;24.00;11.33;;;;;;;13.27;100.00;99945.29;1679888;85;21024;-76
2022/10/26 09:26:53;;;;;;;24.72;10.58;;;;;;;13.27;100.00;99939.03;1685785;85;21654;-77
2022/10/26 09:29:27;;;;;;;22.30;10.82;;;;;;;13.25;100.00;99937.86;1683577;85;21047;-77
2022/10/26 09:31:54;;;;;;;20.25;10.20;;;;;;;13.26;100.00;99938.20;1683093;84;21463;-81
2022/10/26 09:34:35;;;;;;;23.83;10.40;;;;;;;13.27;100.00;99934.95;1625061;88;21075;-77
2022/10/26 09:37:19;;;;;;;25.05;10.32;;;;;;;13.24;100.00;99934.84;1638967;87;20999;-77
2022/10/26 09:40:13;;;;;;;23.35;10.43;;;;;;;13.21;100.00;99936.56;1606739;89;21030;-75
2022/10/26 09:42:45;;;;;;;21.35;9.13;;;;;;;13.19;100.00;99935.92;1611900;88;21018;-79
2022/10/26 09:45:23;;;;;;;19.65;9.10;;;;;;;13.18;100.00;99921.18;1605138;89;21045;-75
2022/10/26 09:47:52;;;;;;;20.85;8.48;;;;;;;13.17;100.00;99921.67;1648349;87;21053;-75
2022/10/26 09:50:36;;;;;;;20.37;9.63;;;;;;;13.17;100.00;99916.77;1648767;87;21116;-79
2022/10/26 09:53:02;;;;;;;21.73;9.25;;;;;;;13.15;100.00;99907.98;1654355;87;21426;-74
2022/10/26 09:55:30;;;;;;;21.02;9.18;;;;;;;13.14;100.00;99909.86;1656472;87;21088;-74
2022/10/26 09:58:00;;;;;;;21.45;9.55;;;;;;;13.12;100.00;99903.78;1653011;87;21635;-78
2022/10/26 10:00:30;;;;;;;19.65;8.38;;;;;;;13.10;100.00;99900.39;1653989;87;21546;-79
2022/10/26 10:02:57;;;;;;;18.80;8.25;;;;;;;13.10;100.00;99896.32;1631483;87;21067;-75
2022/10/26 10:23:31;;;;;;;15.45;7.35;;;;;;;13.16;100.00;100087.50;1765584;80;23322;-76
2022/10/26 10:26:07;;;;;;;13.30;7.08;;;;;;;13.18;100.00;99911.67;1735684;82;21038;-75
2022/10/26 10:28:34;;;;;;;11.48;6.22;;;;;;;13.15;100.00;99903.38;1620604;88;21105;-76
2022/10/26 10:31:09;;;;;;;12.58;6.97;;;;;;;13.12;100.00;99903.78;1595881;88;21066;-78
2022/10/26 10:33:39;;;;;;;14.25;7.00;;;;;;;13.09;100.00;99896.02;1602055;88;21067;-78
2022/10/26 10:36:10;;;;;;;13.65;7.33;;;;;;;13.05;100.00;99886.55;1594573;88;21078;-79
2022/10/26 10:38:43;;;;;;;14.68;7.42;;;;;;;13.04;100.00;99897.09;1560318;91;21069;-77
2022/10/26 10:41:21;;;;;;;16.87;7.63;;;;;;;13.02;100.00;99891.86;1544949;92;21143;-76
2022/10/26 10:44:04;;;;;;;13.80;7.65;;;;;;;13.02;100.00;99895.93;1590006;89;21744;-77
2022/10/26 10:46:33;;;;;;;15.38;7.50;;;;;;;13.03;100.00;99894.05;1581802;89;21073;-74
2022/10/26 10:49:03;;;;;;;15.80;7.95;;;;;;;13.02;100.00;99894.57;1605268;89;21106;-72
2022/10/26 10:51:38;;;;;;;15.00;7.53;;;;;;;12.99;100.00;99899.02;1599948;89;21545;-73
2022/10/26 10:54:05;;;;;;;;;;;;;;;12.99;100.00;99900.90;1597523;90;21089;-75
2022/10/26 10:56:48;;;;;;;14.43;7.85;;;;;;;12.97;100.00;99897.02;1586589;88;20129;-74
2022/10/26 10:59:45;;;;;;;17.05;8.40;;;;;;;12.98;100.00;99895.13;1580065;89;21072;-76
2022/10/26 11:02:34;;;;;;;20.40;8.58;;;;;;;12.99;100.00;99904.97;1579925;91;21073;-77
2022/10/26 11:05:12;;;;;;;17.17;8.90;;;;;;;12.97;100.00;99908.39;1580123;91;21124;-77
2022/10/26 11:08:06;;;;;;;19.98;10.00;;;;;;;12.96;100.00;99901.27;1574658;91;21112;-75
2022/10/26 11:10:45;;;;;;;21.27;11.10;;;;;;;12.96;100.00;99912.98;1595391;89;21030;-75
2022/10/26 11:13:23;;;;;;;22.87;10.03;;;;;;;12.96;100.00;99905.34;1591282;89;21009;-77
2022/10/26 11:15:53;;;;;;;21.33;10.38;;;;;;;12.96;100.00;99912.13;1529103;93;21118;-74
2022/10/26 11:18:35;;;;;;;21.37;10.43;;;;;;;12.94;100.00;99912.84;1547508;93;21102;-75
2022/10/26 11:21:16;;;;;;;23.30;11.73;;;;;;;12.91;100.00;99917.61;1501296;94;21174;-75
2022/10/26 11:23:51;;;;;;;20.55;10.60;;;;;;;12.87;100.00;99916.32;1455188;97;21137;-74
2022/10/26 11:26:35;;;;;;;23.85;12.65;;;;;;;12.83;100.00;99917.70;1533318;93;21114;-76
2022/10/26 11:29:23;;;;;;;20.77;10.35;;;;;;;12.83;100.00;99916.87;1532208;94;21086;-74
2022/10/26 11:31:55;;;;;;;22.90;11.55;;;;;;;12.81;100.00;99921.12;1532040;94;21127;-73
2022/10/26 11:34:50;;;;;;;21.45;11.00;;;;;;;12.80;100.00;99922.67;1533062;91;21158;-72
2022/10/26 11:37:58;;;;;;;25.48;12.47;;;;;;;12.78;100.00;99927.45;1565168;91;21069;-74
2022/10/26 11:40:43;;;;;;;26.60;15.10;;;;;;;12.76;100.00;99928.99;1550673;91;21174;-73
2022/10/26 11:43:48;;;;;;;25.70;14.53;;;;;;;12.72;100.00;99928.52;1573666;91;21097;-74
2022/10/26 11:46:25;;;;;;;33.40;15.72;;;;;;;12.71;100.00;99926.86;1544953;91;21110;-74
2022/10/26 11:49:17;;;;;;;24.57;13.10;;;;;;;12.68;100.00;99925.03;1544649;91;21117;-74
2022/10/26 11:52:00;;;;;;;25.68;13.75;;;;;;;12.67;100.00;99926.05;1573461;91;21058;-74
2022/10/26 11:54:40;;;;;;;21.90;12.05;;;;;;;12.66;100.00;99925.72;1624513;88;21065;-71
2022/10/26 11:57:07;;;;;;;21.33;11.08;;;;;;;12.64;100.00;99930.00;1624570;88;21077;-74
2022/10/26 11:59:39;;;;;;;23.27;10.98;;;;;;;12.61;100.00;99931.72;1615864;88;21089;-75
2022/10/26 12:02:22;;;;;;;20.57;9.63;;;;;;;12.54;100.00;99930.27;1633201;88;21062;-74
2022/10/26 12:05:22;;;;;;;20.95;10.50;;;;;;;12.51;100.00;99927.08;1602235;87;21137;-74
2022/10/26 12:07:55;;;;;;;19.37;10.03;;;;;;;12.46;100.00;99928.98;1624980;87;21038;-74
2022/10/26 12:10:33;;;;;;;16.73;9.50;;;;;;;12.41;100.00;99924.66;1475654;97;21115;-75